Capitol Logistics 107


PANC
Ted Stevens Anchorage International Airport
Anchorage, Alaska, US
KMIA
Miami International Airport
Miami, Florida, US

Route Details

Aircraft Information
Primary: Boeing 747-400BCF
Backup: Boeing 777-200LRF
Route Data
Distance: 3479nm
Sched. Duration: 7h 20m
Avg. Duration: 7h 92m (+73m)
Times Flown: 6
Recm'd Route: JOH J501 YAK NCA10 YQU J515 YEG SEFFY VLN J483 MOT ABR J45 FSD J45 DSM Q19 LAJUG Q19 BNA BULZI NICKI Q81 ENDEW JUULI SSCOT5
Planned Altitude: 33,000ft
Origin Wx: PANC 190053Z 04008KT 10SM -RA SCT012 SCT022 OVC044 02/00 A2890 RMK AO2 SLP786 P0000 T00170000
Dest. Wx: KMIA 190053Z 03006KT 10SM FEW040 SCT250 18/09 A3021 RMK AO2 SLP229 T01830089 $
Notes:

Financial History
Total Freight: 808,736lbs
Average Load: 134,789lbs/flt
Fuel Used: 835,306lbs
Avg. Fuel Used: 139,218lbs/flt
Fuel Expense: $1,070,442
Avg. Fuel Expense: $178,407
Avg. Fuel Cost: $1.28/lbs
Total Gross Income: $1,702,184
Pilot Pay: $1,314
Total Expenses: $184,148
Total Revenue: $435,007
Average Revenue: $283,697.38